Time;durP1;ratioP1;P1;durP2;ratioP2;P2;SDS_P1;SDS_P2;PMS_P1;PMS_P2;Temp;Humidity;BMP_temperature;BMP_pressure;BME280_temperature;BME280_humidity;BME280_pressure;Samples;Min_cycle;Max_cycle;Signal;HPM_P1;HPM_P2
2021/12/29 00:01:37;;;;;;;1999.90;999.90;;;;;;;0.44;63.35;99269.38;4986515;28;98032;-72
2021/12/29 00:04:05;;;;;;;1999.90;999.90;;;;;;;0.34;64.00;99273.34;4986541;28;97381;-73
2021/12/29 00:06:33;;;;;;;1999.90;999.90;;;;;;;0.59;63.27;99272.56;4986877;28;97989;-73
2021/12/29 00:09:01;;;;;;;1999.90;999.90;;;;;;;0.73;62.92;99268.69;4978985;28;97767;-72
2021/12/29 00:11:29;;;;;;;1999.90;999.90;;;;;;;0.82;62.71;99274.25;4985944;28;97559;-73
2021/12/29 00:13:58;;;;;;;1999.90;999.90;;;;;;;0.51;63.69;99273.97;4988008;28;97190;-73
2021/12/29 00:16:28;;;;;;;1999.90;999.90;;;;;;;0.38;63.74;99271.75;4985697;28;96846;-72
2021/12/29 00:18:58;;;;;;;1999.90;999.90;;;;;;;0.30;63.75;99275.81;4981690;28;97852;-73
2021/12/29 00:21:26;;;;;;;1999.90;999.90;;;;;;;0.55;62.84;99291.59;4985366;28;98420;-72
2021/12/29 00:23:58;;;;;;;1999.90;999.90;;;;;;;0.65;62.79;99285.88;4986499;28;96890;-73
2021/12/29 00:26:26;;;;;;;1999.90;999.90;;;;;;;0.74;62.64;99299.28;4985115;28;97046;-71
2021/12/29 00:28:54;;;;;;;1999.90;999.90;;;;;;;0.82;62.20;99303.06;4986001;28;97595;-72
2021/12/29 00:31:22;;;;;;;1999.90;999.90;;;;;;;0.86;62.02;99307.56;4966656;28;97676;-72
2021/12/29 00:34:11;;;;;;;1999.90;999.90;;;;;;;0.90;61.98;99302.53;4974079;28;96921;-72
2021/12/29 00:37:14;;;;;;;1999.90;999.90;;;;;;;0.94;61.50;99308.75;5003424;27;97868;-74
2021/12/29 00:40:11;;;;;;;1999.90;999.90;;;;;;;1.01;61.37;99315.97;4981415;28;100172;-72
2021/12/29 00:42:39;;;;;;;1999.90;999.90;;;;;;;0.68;62.51;99317.38;4980305;28;97676;-71
2021/12/29 00:45:31;;;;;;;1999.90;999.90;;;;;;;0.53;63.10;99320.31;4979914;28;97059;-73
2021/12/29 00:48:00;;;;;;;1999.90;999.90;;;;;;;0.44;63.25;99319.06;4980791;28;97035;-72
2021/12/29 00:50:29;;;;;;;1999.90;999.90;;;;;;;0.35;63.51;99308.25;4987006;28;99312;-72
2021/12/29 00:52:56;;;;;;;1999.90;999.90;;;;;;;0.28;63.87;99312.38;4986384;28;97568;-72
2021/12/29 00:55:24;;;;;;;1999.90;999.90;;;;;;;0.23;63.80;99326.94;4986190;28;96506;-73
2021/12/29 00:57:52;;;;;;;1999.90;999.90;;;;;;;0.48;62.64;99336.69;4984042;28;98414;-72
2021/12/29 01:00:23;;;;;;;1999.90;999.90;;;;;;;0.58;62.44;99344.03;4967337;28;98318;-72
2021/12/29 01:02:51;;;;;;;1999.90;999.90;;;;;;;0.66;62.28;99356.59;4983197;28;101049;-73
2021/12/29 01:05:20;;;;;;;1999.90;999.90;;;;;;;0.73;61.94;99360.31;4966497;28;97692;-72
2021/12/29 01:07:50;;;;;;;1999.90;999.90;;;;;;;0.40;62.76;99370.38;4988942;28;97618;-72
2021/12/29 01:10:18;;;;;;;1999.90;999.90;;;;;;;0.59;61.85;99378.13;4985352;28;97750;-72
2021/12/29 01:12:53;;;;;;;1999.90;999.90;;;;;;;0.69;61.95;99376.72;4984930;28;97829;-73
2021/12/29 01:15:25;;;;;;;1999.90;999.90;;;;;;;0.73;61.17;99376.00;4985527;28;98686;-73
2021/12/29 01:17:55;;;;;;;1999.90;999.90;;;;;;;0.38;61.97;99386.84;4988053;28;96821;-72
2021/12/29 01:20:23;;;;;;;1999.90;999.90;;;;;;;0.23;62.47;99394.09;4982935;28;97558;-72
2021/12/29 01:22:53;;;;;;;1999.90;999.90;;;;;;;0.12;63.07;99398.84;4986827;28;98877;-73
2021/12/29 01:25:21;;;;;;;1999.90;999.90;;;;;;;0.00;63.05;99404.50;5001739;28;97259;-74
2021/12/29 01:27:49;;;;;;;1999.90;999.90;;;;;;;0.27;62.47;99398.63;4986573;28;96942;-73
2021/12/29 01:30:18;;;;;;;1999.90;999.90;;;;;;;0.37;62.35;99393.84;4999164;28;99668;-73
2021/12/29 01:32:45;;;;;;;1999.90;999.90;;;;;;;0.46;61.86;99406.38;4985322;28;99887;-74
2021/12/29 01:35:13;;;;;;;1999.90;999.90;;;;;;;0.52;61.41;99406.63;4984587;28;97306;-72
2021/12/29 01:37:41;;;;;;;1999.90;999.90;;;;;;;0.60;61.52;99415.63;4986398;28;99417;-71
2021/12/29 01:40:14;;;;;;;1999.90;999.90;;;;;;;0.62;61.18;99414.88;4979958;28;99073;-72
2021/12/29 01:42:41;;;;;;;1999.90;999.90;;;;;;;0.29;62.13;99423.13;4983821;28;99119;-73
2021/12/29 01:45:10;;;;;;;1999.90;999.90;;;;;;;0.15;62.69;99440.84;4984420;28;96852;-73
2021/12/29 01:47:39;;;;;;;1999.90;999.90;;;;;;;0.06;63.03;99443.94;4986701;28;96677;-72
2021/12/29 01:50:10;;;;;;;1999.90;999.90;;;;;;;-0.02;63.01;99440.16;4987687;28;98275;-72
2021/12/29 01:52:39;;;;;;;1999.90;999.90;;;;;;;-0.05;63.49;99441.75;4985567;28;98908;-72
2021/12/29 01:55:12;;;;;;;1999.90;999.90;;;;;;;-0.09;63.27;99440.72;5004073;28;96523;-71
2021/12/29 01:57:40;;;;;;;1999.90;999.90;;;;;;;-0.10;63.49;99432.81;4978929;28;96819;-72
2021/12/29 02:00:11;;;;;;;1999.90;999.90;;;;;;;-0.12;63.48;99440.56;4986975;28;97675;-73
2021/12/29 02:02:39;;;;;;;1999.90;999.90;;;;;;;-0.16;63.58;99441.31;4987554;28;97652;-72
2021/12/29 02:05:08;;;;;;;1999.90;999.90;;;;;;;-0.19;63.38;99441.16;4985092;28;97037;-72
2021/12/29 02:07:35;;;;;;;1999.90;999.90;;;;;;;-0.22;63.58;99443.66;4992358;28;97089;-73
2021/12/29 02:10:05;;;;;;;1999.90;999.90;;;;;;;-0.25;63.65;99461.81;4985819;28;97902;-72
2021/12/29 02:12:34;;;;;;;1999.90;999.90;;;;;;;-0.32;63.53;99451.91;4986108;28;100019;-71
2021/12/29 02:15:02;;;;;;;1999.90;999.90;;;;;;;-0.37;63.72;99457.75;4986679;28;96779;-73
2021/12/29 02:17:30;;;;;;;1999.90;999.90;;;;;;;-0.41;63.87;99464.56;4973686;28;97527;-72
2021/12/29 02:19:59;;;;;;;1999.90;999.90;;;;;;;-0.47;63.84;99466.94;4978276;28;100916;-72
2021/12/29 02:22:36;;;;;;;1999.90;999.90;;;;;;;-0.50;63.95;99471.16;4985400;28;98339;-73
2021/12/29 02:25:21;;;;;;;1999.90;999.90;;;;;;;-0.21;63.35;99476.78;5000850;28;97371;-71
2021/12/29 02:27:50;;;;;;;1999.90;999.90;;;;;;;-0.40;63.96;99483.78;4987371;28;97196;-71
2021/12/29 02:30:19;;;;;;;1999.90;999.90;;;;;;;-0.44;64.16;99485.38;4982557;28;98507;-71
2021/12/29 02:32:49;;;;;;;1999.90;999.90;;;;;;;-0.46;64.22;99500.06;4987832;28;100380;-74
2021/12/29 02:35:19;;;;;;;1999.90;999.90;;;;;;;-0.47;64.54;99493.06;4981778;28;97032;-71
2021/12/29 02:37:46;;;;;;;1999.90;999.90;;;;;;;-0.48;64.71;99488.66;4987933;28;97578;-71
2021/12/29 02:40:14;;;;;;;1999.90;999.90;;;;;;;-0.50;64.88;99505.97;4983623;28;100779;-72
2021/12/29 02:42:43;;;;;;;1999.90;999.90;;;;;;;-0.50;64.84;99505.97;4968572;28;98468;-72
2021/12/29 02:45:13;;;;;;;1999.90;999.90;;;;;;;-0.51;65.10;99517.28;4993481;28;96913;-72
2021/12/29 02:47:40;;;;;;;1999.90;999.90;;;;;;;-0.49;65.50;99518.25;4985177;28;96756;-72
2021/12/29 02:50:09;;;;;;;1999.90;999.90;;;;;;;-0.45;65.18;99516.66;4988953;28;97121;-74
2021/12/29 02:52:38;;;;;;;1999.90;999.90;;;;;;;-0.41;65.41;99509.00;4986611;28;100095;-72
2021/12/29 02:55:06;;;;;;;1999.90;999.90;;;;;;;-0.34;64.88;99511.09;4982553;28;97082;-73
2021/12/29 02:57:34;;;;;;;1999.90;999.90;;;;;;;-0.29;65.07;99529.56;5004245;28;97302;-72
2021/12/29 03:00:02;;;;;;;1999.90;999.90;;;;;;;-0.25;65.51;99521.94;4986944;28;97742;-73
2021/12/29 03:02:30;;;;;;;1999.90;999.90;;;;;;;-0.23;65.16;99532.47;4989962;28;98727;-71
2021/12/29 03:04:58;;;;;;;1999.90;999.90;;;;;;;-0.18;65.03;99539.66;4987831;28;97102;-72
2021/12/29 03:07:32;;;;;;;1999.90;999.90;;;;;;;-0.16;64.80;99532.78;4990726;28;96718;-72
2021/12/29 03:10:01;;;;;;;1999.90;999.90;;;;;;;-0.12;64.86;99537.31;4989921;28;98660;-72
2021/12/29 03:12:29;;;;;;;1999.90;999.90;;;;;;;-0.11;64.72;99535.59;4998627;28;98984;-72
2021/12/29 03:14:58;;;;;;;1999.90;999.90;;;;;;;-0.10;64.73;99537.41;4984347;28;97116;-72
2021/12/29 03:17:27;;;;;;;1999.90;999.90;;;;;;;-0.09;64.83;99540.06;4989330;28;97620;-72
2021/12/29 03:19:54;;;;;;;1999.90;999.90;;;;;;;-0.07;64.82;99543.66;4988139;28;99322;-73
2021/12/29 03:22:22;;;;;;;1999.90;999.90;;;;;;;-0.03;64.90;99545.53;4986768;28;97485;-72
2021/12/29 03:24:50;;;;;;;1999.90;999.90;;;;;;;-0.01;65.04;99546.50;4988733;28;96928;-72
2021/12/29 03:27:19;;;;;;;1999.90;999.90;;;;;;;0.02;64.54;99551.88;4968649;28;96734;-72
2021/12/29 03:29:47;;;;;;;1999.90;999.90;;;;;;;0.03;64.99;99557.97;4968353;28;99555;-73
2021/12/29 03:32:22;;;;;;;1999.90;999.90;;;;;;;0.02;65.26;99564.97;4967621;28;97863;-72
2021/12/29 03:34:50;;;;;;;1999.90;999.90;;;;;;;0.08;65.25;99580.03;4987885;28;96948;-71
2021/12/29 03:37:18;;;;;;;1999.90;999.90;;;;;;;0.11;65.07;99580.16;4990099;28;97187;-72
2021/12/29 03:39:45;;;;;;;1999.90;999.90;;;;;;;0.14;65.26;99580.25;4985112;28;99323;-72
2021/12/29 03:42:39;;;;;;;1999.90;999.90;;;;;;;0.15;64.72;99575.13;4988571;28;97657;-72
2021/12/29 03:45:07;;;;;;;1999.90;999.90;;;;;;;0.21;64.54;99566.66;4988359;28;97767;-72
2021/12/29 03:47:35;;;;;;;1999.90;999.90;;;;;;;0.26;64.22;99577.31;5005297;28;96690;-74
2021/12/29 03:50:03;;;;;;;1999.90;999.90;;;;;;;0.27;64.44;99581.72;4989472;28;97993;-74
2021/12/29 03:52:31;;;;;;;1999.90;999.90;;;;;;;0.30;64.66;99597.56;4988493;28;97022;-74
2021/12/29 03:54:59;;;;;;;1999.90;999.90;;;;;;;0.33;64.79;99597.69;4986881;28;97317;-74
2021/12/29 03:57:27;;;;;;;1999.90;999.90;;;;;;;0.35;64.63;99598.66;4980707;28;97765;-75
2021/12/29 03:59:56;;;;;;;1999.90;999.90;;;;;;;0.37;64.51;99599.59;4997323;28;99828;-75
2021/12/29 04:02:23;;;;;;;1999.90;999.90;;;;;;;0.40;65.02;99599.72;4970324;28;100623;-73
2021/12/29 04:04:52;;;;;;;1999.90;999.90;;;;;;;0.41;64.03;99596.31;4985086;28;98002;-73
2021/12/29 04:07:20;;;;;;;1999.90;999.90;;;;;;;0.43;64.46;99595.50;4990589;28;97593;-73
2021/12/29 04:09:47;;;;;;;1999.90;999.90;;;;;;;0.46;64.37;99613.06;4987953;28;97524;-73
2021/12/29 04:12:15;;;;;;;1999.90;999.90;;;;;;;0.48;64.02;99611.44;4993086;28;97899;-75
2021/12/29 04:14:43;;;;;;;1999.90;999.90;;;;;;;0.49;64.25;99615.81;4987550;28;97822;-74
2021/12/29 04:17:13;;;;;;;1999.90;999.90;;;;;;;0.49;63.95;99621.03;4984150;28;96776;-73
2021/12/29 04:22:25;;;;;;;1999.90;999.90;;;;;;;0.55;64.63;99621.31;4984309;28;98035;-73
2021/12/29 04:24:52;;;;;;;1999.90;999.90;;;;;;;0.59;64.18;99623.25;4984873;28;97302;-72
2021/12/29 04:27:25;;;;;;;1999.90;999.90;;;;;;;0.62;64.22;99621.63;4990594;28;96865;-72
2021/12/29 04:29:53;;;;;;;1999.90;999.90;;;;;;;0.67;63.86;99624.44;4983466;28;98509;-72
2021/12/29 04:32:22;;;;;;;1999.90;999.90;;;;;;;0.68;64.38;99618.38;4988158;28;97605;-74
2021/12/29 04:34:50;;;;;;;1999.90;999.90;;;;;;;0.69;64.15;99621.06;4987645;28;97320;-72
2021/12/29 04:37:17;;;;;;;1999.90;999.90;;;;;;;0.72;64.05;99623.78;4987903;28;96972;-73
2021/12/29 04:39:45;;;;;;;1999.90;999.90;;;;;;;0.75;64.18;99628.28;4987417;28;98728;-73
2021/12/29 04:42:13;;;;;;;1999.90;999.90;;;;;;;0.75;63.91;99629.19;4985201;28;99589;-73
2021/12/29 04:44:40;;;;;;;1999.90;999.90;;;;;;;0.77;64.53;99639.72;4980351;28;97680;-72
2021/12/29 04:47:08;;;;;;;1999.90;999.90;;;;;;;0.77;64.15;99639.72;4986452;28;97153;-73
2021/12/29 04:49:41;;;;;;;1999.90;999.90;;;;;;;0.77;63.69;99645.84;4988311;28;98750;-72
2021/12/29 04:52:11;;;;;;;1999.90;999.90;;;;;;;0.75;63.53;99644.00;4982865;28;99131;-72
2021/12/29 04:54:39;;;;;;;1999.90;999.90;;;;;;;0.76;64.36;99661.47;4987545;28;97954;-73
2021/12/29 04:57:07;;;;;;;1999.90;999.90;;;;;;;0.78;63.92;99651.97;4982940;28;97637;-72
2021/12/29 04:59:34;;;;;;;1999.90;999.90;;;;;;;0.78;64.00;99657.19;4996892;28;98696;-72
2021/12/29 05:02:02;;;;;;;1999.90;999.90;;;;;;;0.79;64.37;99666.84;4984361;28;99446;-72
2021/12/29 05:04:32;;;;;;;1999.90;999.90;;;;;;;0.79;64.03;99661.63;4990514;28;97274;-72
2021/12/29 05:09:48;;;;;;;1999.90;999.90;;;;;;;0.76;64.04;99662.38;4971434;28;99240;-72
2021/12/29 05:12:16;;;;;;;1999.90;999.90;;;;;;;1.06;63.11;99675.84;4983035;28;100389;-72
2021/12/29 05:14:44;;;;;;;1999.90;999.90;;;;;;;0.90;63.71;99670.81;4987903;28;97365;-73
2021/12/29 05:17:12;;;;;;;1999.90;999.90;;;;;;;0.85;64.03;99674.97;4985514;28;96768;-73
2021/12/29 05:19:39;;;;;;;1999.90;999.90;;;;;;;0.83;63.54;99687.97;4985702;28;98865;-72
2021/12/29 05:22:08;;;;;;;1999.90;999.90;;;;;;;0.79;63.69;99680.84;4988659;28;101305;-72
2021/12/29 05:24:36;;;;;;;1999.90;999.90;;;;;;;0.73;63.69;99680.56;4985214;28;96823;-73
2021/12/29 05:27:04;;;;;;;1999.90;999.90;;;;;;;0.74;63.94;99684.09;4985320;28;97665;-74
2021/12/29 05:29:32;;;;;;;1999.90;999.90;;;;;;;0.73;64.33;99696.28;4984703;28;99310;-71
2021/12/29 05:31:59;;;;;;;1999.90;999.90;;;;;;;0.70;63.67;99709.25;4987304;28;99764;-72
2021/12/29 05:34:27;;;;;;;1999.90;999.90;;;;;;;0.65;64.10;99702.91;4988981;28;96989;-72
2021/12/29 05:36:55;;;;;;;1999.90;999.90;;;;;;;0.65;63.94;99707.28;4987077;28;96813;-72
2021/12/29 05:39:24;;;;;;;1999.90;999.90;;;;;;;0.61;63.90;99707.94;4987224;28;98753;-72
2021/12/29 05:41:52;;;;;;;1999.90;999.90;;;;;;;0.65;64.08;99712.50;4986506;28;97643;-72
2021/12/29 05:44:20;;;;;;;1999.90;999.90;;;;;;;0.61;64.10;99710.56;4984670;28;96853;-71
2021/12/29 05:46:47;;;;;;;1999.90;999.90;;;;;;;0.60;64.02;99712.28;4984354;28;98605;-74
2021/12/29 05:49:15;;;;;;;1999.90;999.90;;;;;;;0.62;64.14;99717.59;4987191;28;97609;-73
2021/12/29 05:51:44;;;;;;;1999.90;999.90;;;;;;;0.59;64.01;99726.22;4986198;28;98899;-72
2021/12/29 05:54:14;;;;;;;1999.90;999.90;;;;;;;0.57;64.40;99719.13;4985776;28;97562;-74
2021/12/29 05:56:43;;;;;;;1999.90;999.90;;;;;;;0.57;64.02;99724.34;5001353;28;96857;-72
2021/12/29 05:59:10;;;;;;;1999.90;999.90;;;;;;;0.55;64.07;99732.13;4986815;28;97625;-73
2021/12/29 06:01:38;;;;;;;1999.90;999.90;;;;;;;0.55;64.09;99746.94;4983295;28;98408;-72
2021/12/29 06:04:06;;;;;;;1999.90;999.90;;;;;;;0.54;64.39;99760.88;4983259;28;97173;-72
2021/12/29 06:06:34;;;;;;;1999.90;999.90;;;;;;;0.54;64.21;99760.88;4988470;28;96808;-73
2021/12/29 06:09:01;;;;;;;1999.90;999.90;;;;;;;0.53;64.23;99759.06;4990610;28;98731;-73
2021/12/29 06:11:29;;;;;;;1999.90;999.90;;;;;;;0.52;64.34;99763.38;4988495;28;99924;-72
2021/12/29 06:13:58;;;;;;;1999.90;999.90;;;;;;;0.52;64.11;99770.38;4982662;28;96768;-74
2021/12/29 06:16:27;;;;;;;1999.90;999.90;;;;;;;0.51;64.36;99766.84;4983338;28;97933;-72
2021/12/29 06:18:55;;;;;;;1999.90;999.90;;;;;;;0.51;64.21;99776.41;4986903;28;97640;-73
2021/12/29 06:21:23;;;;;;;1999.90;999.90;;;;;;;0.50;64.03;99780.78;4982388;28;100104;-71
2021/12/29 06:23:51;;;;;;;1999.90;999.90;;;;;;;0.50;64.22;99785.09;4986711;28;96712;-72
2021/12/29 06:26:19;;;;;;;1999.90;999.90;;;;;;;0.52;64.66;99786.06;4988649;28;98520;-73
2021/12/29 06:28:48;;;;;;;1999.90;999.90;;;;;;;0.54;64.54;99781.81;4988920;28;98265;-72
2021/12/29 06:31:17;;;;;;;1999.90;999.90;;;;;;;0.55;64.05;99783.56;4985753;28;98461;-73
2021/12/29 06:33:46;;;;;;;1999.90;999.90;;;;;;;0.59;64.06;99777.66;4990950;28;96668;-72
2021/12/29 06:36:14;;;;;;;1999.90;999.90;;;;;;;0.59;64.32;99780.28;4986599;28;98521;-73
2021/12/29 06:38:42;;;;;;;1999.90;999.90;;;;;;;0.62;64.41;99788.25;4988050;28;99152;-72
2021/12/29 06:41:09;;;;;;;1999.90;999.90;;;;;;;0.64;63.94;99797.06;4984840;28;99074;-73
2021/12/29 06:43:37;;;;;;;1999.90;999.90;;;;;;;0.64;64.17;99799.69;4987668;28;96899;-73
2021/12/29 06:46:05;;;;;;;1999.90;999.90;;;;;;;0.66;64.10;99811.13;4989947;28;97504;-73
2021/12/29 06:48:34;;;;;;;1999.90;999.90;;;;;;;0.66;64.52;99812.03;4993747;28;98121;-73
2021/12/29 06:51:02;;;;;;;1999.90;999.90;;;;;;;0.70;64.71;99805.22;4986538;28;98489;-73
2021/12/29 06:53:31;;;;;;;1999.90;999.90;;;;;;;0.66;63.85;99811.13;4988929;28;96976;-73
2021/12/29 06:56:00;;;;;;;1999.90;999.90;;;;;;;0.70;64.33;99815.69;4990142;28;97420;-73
2021/12/29 06:58:28;;;;;;;1999.90;999.90;;;;;;;0.72;64.57;99832.34;4989054;28;99178;-74
2021/12/29 07:00:56;;;;;;;1999.90;999.90;;;;;;;0.71;63.82;99825.31;4987613;28;98801;-72
2021/12/29 07:03:25;;;;;;;1999.90;999.90;;;;;;;0.71;64.02;99830.53;4988775;28;97166;-73
2021/12/29 07:05:55;;;;;;;1999.90;999.90;;;;;;;0.70;64.32;99832.28;4987859;28;98356;-73
2021/12/29 07:08:24;;;;;;;1999.90;999.90;;;;;;;0.71;64.08;99833.16;4991930;28;98901;-73
2021/12/29 07:10:52;;;;;;;1999.90;999.90;;;;;;;0.71;64.49;99849.78;4999730;28;97597;-72
2021/12/29 07:13:20;;;;;;;1999.90;999.90;;;;;;;0.71;63.82;99855.00;4991423;28;99178;-72
2021/12/29 07:15:48;;;;;;;1999.90;999.90;;;;;;;0.71;64.06;99859.34;4987013;28;98362;-72
2021/12/29 07:18:16;;;;;;;1999.90;999.90;;;;;;;0.68;64.02;99861.84;4997215;28;96788;-73
2021/12/29 07:20:44;;;;;;;1999.90;999.90;;;;;;;0.66;64.28;99863.47;5001320;28;97599;-73
2021/12/29 07:23:13;;;;;;;1999.90;999.90;;;;;;;0.65;63.61;99864.31;4997013;28;96883;-73
2021/12/29 07:25:41;;;;;;;1999.90;999.90;;;;;;;0.64;64.26;99871.28;4996525;28;98135;-72
2021/12/29 07:28:09;;;;;;;1999.90;999.90;;;;;;;0.65;64.36;99869.56;4989759;28;99615;-72
2021/12/29 07:30:36;;;;;;;1999.90;999.90;;;;;;;0.65;63.80;99880.03;4995569;28;98966;-73
2021/12/29 07:33:04;;;;;;;1999.90;999.90;;;;;;;0.63;64.14;99869.47;4998573;28;96971;-74
2021/12/29 07:35:32;;;;;;;1999.90;999.90;;;;;;;0.62;64.50;99887.72;4994744;28;96846;-72
2021/12/29 07:38:00;;;;;;;1999.90;999.90;;;;;;;0.61;64.30;99883.31;4988748;28;99778;-72
2021/12/29 07:40:30;;;;;;;1999.90;999.90;;;;;;;0.60;64.16;99894.59;4976091;28;99615;-72
2021/12/29 07:42:58;;;;;;;1999.90;999.90;;;;;;;0.61;64.13;99901.66;4973243;28;97564;-72
2021/12/29 07:45:26;;;;;;;1999.90;999.90;;;;;;;0.61;64.01;99897.28;4991817;28;97626;-72
2021/12/29 07:47:55;;;;;;;1999.90;999.90;;;;;;;0.64;64.15;99899.16;4991931;28;97625;-71
2021/12/29 07:50:22;;;;;;;1999.90;999.90;;;;;;;0.64;64.00;99909.63;4980582;28;99311;-72
2021/12/29 07:52:59;;;;;;;1999.90;999.90;;;;;;;0.60;64.05;99911.22;4988493;28;98104;-72
2021/12/29 07:55:26;;;;;;;1999.90;999.90;;;;;;;0.61;64.20;99930.44;4977666;28;96893;-72
2021/12/29 07:57:56;;;;;;;1999.90;999.90;;;;;;;0.56;64.04;99940.69;4993508;28;97663;-71
2021/12/29 08:00:24;;;;;;;1999.90;999.90;;;;;;;0.53;64.09;99942.25;4990596;28;97679;-72
2021/12/29 08:02:52;;;;;;;1999.90;999.90;;;;;;;0.51;64.04;99946.50;4993266;28;97224;-72
2021/12/29 08:05:20;;;;;;;1999.90;999.90;;;;;;;0.47;64.26;99942.84;4991631;28;96779;-72
2021/12/29 08:07:48;;;;;;;1999.90;999.90;;;;;;;0.46;64.31;99945.41;4991844;28;100230;-72
2021/12/29 08:10:16;;;;;;;1999.90;999.90;;;;;;;0.43;64.44;99955.75;4990064;28;97822;-73
2021/12/29 08:12:44;;;;;;;1999.90;999.90;;;;;;;0.40;64.75;99959.09;4986061;28;97055;-72
2021/12/29 08:15:13;;;;;;;1999.90;999.90;;;;;;;0.38;65.06;99957.22;4993907;28;98723;-74
2021/12/29 08:17:43;;;;;;;1999.90;999.90;;;;;;;0.37;64.36;99960.66;4987199;28;99646;-72
2021/12/29 08:20:11;;;;;;;1999.90;999.90;;;;;;;0.36;64.87;99965.00;4991669;28;98773;-73
2021/12/29 08:22:39;;;;;;;1999.90;999.90;;;;;;;0.36;64.86;99967.63;4985614;28;97345;-73
2021/12/29 08:25:10;;;;;;;1999.90;999.90;;;;;;;0.35;65.16;99964.94;4984983;28;97024;-72
2021/12/29 08:27:38;;;;;;;1999.90;999.90;;;;;;;0.35;64.95;99965.84;4975192;28;97977;-71
2021/12/29 08:30:07;;;;;;;1999.90;999.90;;;;;;;0.37;64.96;99968.53;4984967;28;97790;-72
2021/12/29 08:32:36;;;;;;;1999.90;999.90;;;;;;;0.39;64.93;99972.09;4980428;28;98620;-76
2021/12/29 08:35:05;;;;;;;1999.90;999.90;;;;;;;0.43;64.68;99980.16;4978118;28;97691;-74
2021/12/29 08:37:33;;;;;;;1999.90;999.90;;;;;;;0.44;64.88;99981.97;4977527;28;98809;-73
2021/12/29 08:40:01;;;;;;;1999.90;999.90;;;;;;;0.50;64.68;99978.75;4978534;28;98150;-74
2021/12/29 08:42:29;;;;;;;1999.90;999.90;;;;;;;0.51;64.76;99985.78;4981772;28;98684;-73
2021/12/29 08:44:57;;;;;;;1999.90;999.90;;;;;;;0.51;64.89;99988.38;4995164;28;96562;-73
2021/12/29 08:47:25;;;;;;;1999.90;999.90;;;;;;;0.53;65.08;99997.22;4974673;28;99099;-73
2021/12/29 08:49:54;;;;;;;1999.90;999.90;;;;;;;0.53;64.94;99999.84;4981435;28;97956;-74
2021/12/29 08:52:21;;;;;;;1999.90;999.90;;;;;;;0.52;65.25;100005.91;4984215;28;98257;-74
2021/12/29 08:54:49;;;;;;;1999.90;999.90;;;;;;;0.52;65.46;99991.06;4991114;28;96710;-73
2021/12/29 08:57:17;;;;;;;1999.90;999.90;;;;;;;0.54;65.15;99999.91;4984123;28;97200;-74
2021/12/29 08:59:44;;;;;;;1999.90;999.90;;;;;;;0.55;64.81;100011.28;4986918;28;98911;-72
2021/12/29 09:02:12;;;;;;;1999.90;999.90;;;;;;;0.57;64.62;100012.25;4992200;28;97323;-72
2021/12/29 09:04:40;;;;;;;1999.90;999.90;;;;;;;0.55;64.51;100009.56;4987836;28;97633;-78
2021/12/29 09:07:09;;;;;;;1999.90;999.90;;;;;;;0.55;65.01;100020.03;4981754;28;100044;-73
2021/12/29 09:09:37;;;;;;;1999.90;999.90;;;;;;;0.52;65.89;100013.75;4980268;28;98776;-74
2021/12/29 09:12:05;;;;;;;1999.90;999.90;;;;;;;0.52;64.82;100017.25;4993908;28;97250;-73
2021/12/29 09:14:33;;;;;;;1999.90;999.90;;;;;;;0.51;65.38;100019.78;4980691;28;98587;-74
2021/12/29 09:17:01;;;;;;;1999.90;999.90;;;;;;;0.52;65.47;100016.38;4980412;28;98727;-74
2021/12/29 09:19:33;;;;;;;1999.90;999.90;;;;;;;0.52;65.52;100024.22;4977537;28;100816;-74
2021/12/29 09:22:01;;;;;;;1999.90;999.90;;;;;;;0.55;65.72;100029.59;4976524;28;96962;-72
2021/12/29 09:24:30;;;;;;;1999.90;999.90;;;;;;;0.55;66.59;100026.97;4980542;28;98032;-72
2021/12/29 09:26:57;;;;;;;1999.90;999.90;;;;;;;0.58;65.72;100027.13;4978120;28;99368;-73
2021/12/29 09:29:25;;;;;;;1999.90;999.90;;;;;;;0.60;65.58;100028.09;4980442;28;98884;-76
2021/12/29 09:31:53;;;;;;;1999.90;999.90;;;;;;;0.62;65.83;100026.44;4980506;28;97712;-74
2021/12/29 09:34:20;;;;;;;1999.90;999.90;;;;;;;0.65;65.15;100022.25;4979203;28;97498;-74
2021/12/29 09:36:49;;;;;;;1999.90;999.90;;;;;;;0.68;65.51;100024.13;4978114;28;99257;-73
2021/12/29 09:39:16;;;;;;;1999.90;999.90;;;;;;;0.71;66.46;100029.50;4975087;28;100400;-73
2021/12/29 09:41:46;;;;;;;1999.90;999.90;;;;;;;0.74;65.66;100029.69;4981056;28;97184;-73
2021/12/29 09:44:14;;;;;;;1999.90;999.90;;;;;;;0.78;65.61;100028.97;4986058;28;98186;-73
2021/12/29 09:46:42;;;;;;;1999.90;999.90;;;;;;;0.82;64.93;100030.91;4990357;28;100165;-74
2021/12/29 09:49:14;;;;;;;1999.90;999.90;;;;;;;0.84;65.66;100022.34;4979517;28;97901;-72
2021/12/29 09:51:42;;;;;;;1999.90;999.90;;;;;;;0.88;65.53;100029.50;4984834;28;97313;-72
2021/12/29 09:54:11;;;;;;;1999.90;999.90;;;;;;;0.92;64.99;100027.94;4987693;28;96953;-72
2021/12/29 09:56:39;;;;;;;1999.90;999.90;;;;;;;0.91;65.17;100027.03;4992027;28;100743;-73
2021/12/29 09:59:08;;;;;;;1999.90;999.90;;;;;;;0.93;65.39;100032.34;4983046;28;97632;-73
2021/12/29 10:01:35;;;;;;;1999.90;999.90;;;;;;;0.96;65.91;100024.59;4979509;28;99803;-73
2021/12/29 10:04:04;;;;;;;1999.90;999.90;;;;;;;0.99;65.36;100024.78;4984155;28;96782;-73
2021/12/29 10:06:32;;;;;;;1999.90;999.90;;;;;;;1.04;65.64;100020.63;4976892;28;99478;-75
2021/12/29 10:09:10;;;;;;;1999.90;999.90;;;;;;;1.08;65.51;100019.97;4976962;28;102069;-71
2021/12/29 10:11:38;;;;;;;1999.90;999.90;;;;;;;1.11;65.78;100023.63;4990228;28;96891;-72
2021/12/29 10:14:12;;;;;;;1999.90;999.90;;;;;;;1.13;65.82;100021.06;4976597;28;98269;-73
2021/12/29 10:16:40;;;;;;;1999.90;999.90;;;;;;;1.17;65.43;100030.88;4983358;28;99310;-72
2021/12/29 10:19:10;;;;;;;1999.90;999.90;;;;;;;1.21;65.42;100028.44;4996747;28;99099;-71
2021/12/29 10:21:42;;;;;;;1999.90;999.90;;;;;;;1.25;65.63;100037.38;4970532;28;97000;-71
2021/12/29 10:24:10;;;;;;;1999.90;999.90;;;;;;;1.29;65.54;100036.66;4984492;28;96837;-71
2021/12/29 10:26:39;;;;;;;1999.90;999.90;;;;;;;1.33;65.32;100042.94;4976016;28;99968;-71
2021/12/29 10:29:09;;;;;;;1999.90;999.90;;;;;;;1.34;65.93;100052.63;4981574;28;97565;-70
2021/12/29 10:31:40;;;;;;;1999.90;999.90;;;;;;;1.35;66.28;100051.78;4985606;28;97313;-71
2021/12/29 10:34:09;;;;;;;1999.90;999.90;;;;;;;1.39;65.90;100058.94;4981872;28;97055;-71
2021/12/29 10:36:41;;;;;;;1999.90;999.90;;;;;;;1.41;65.20;100066.06;4982470;28;99202;-73
2021/12/29 10:39:11;;;;;;;1999.90;999.90;;;;;;;1.41;65.38;100068.69;4986273;28;97835;-72
2021/12/29 10:41:48;;;;;;;1999.90;999.90;;;;;;;1.42;66.03;100067.84;4982976;28;97314;-72
2021/12/29 10:44:17;;;;;;;1999.90;999.90;;;;;;;1.46;65.72;100064.56;4978636;28;99019;-70
2021/12/29 10:46:47;;;;;;;1999.90;999.90;;;;;;;1.48;65.42;100065.53;4981281;28;99539;-74
2021/12/29 10:49:15;;;;;;;1999.90;999.90;;;;;;;1.49;65.75;100062.06;4978035;28;100574;-72
2021/12/29 10:51:43;;;;;;;1999.90;999.90;;;;;;;1.51;65.40;100057.78;4985810;28;97164;-72
2021/12/29 10:54:15;;;;;;;1999.90;999.90;;;;;;;1.54;65.28;100063.19;4985209;28;96857;-73
2021/12/29 10:56:46;;;;;;;1999.90;999.90;;;;;;;1.56;65.73;100058.88;4963123;28;100823;-71
2021/12/29 10:59:18;;;;;;;1999.90;999.90;;;;;;;1.57;65.31;100071.19;4985100;28;99032;-72
2021/12/29 11:01:48;;;;;;;1999.90;999.90;;;;;;;1.60;65.82;100080.94;4983930;28;98403;-71
2021/12/29 11:04:17;;;;;;;1999.90;999.90;;;;;;;1.63;64.89;100079.34;4965968;28;96878;-72
2021/12/29 11:06:55;;;;;;;1999.90;999.90;;;;;;;1.65;65.55;100084.66;4979229;28;97673;-72
2021/12/29 11:09:25;;;;;;;1999.90;999.90;;;;;;;1.67;65.03;100096.97;4984509;28;98901;-72
2021/12/29 11:11:53;;;;;;;1999.90;999.90;;;;;;;1.68;65.31;100109.28;4983500;28;97145;-71
2021/12/29 11:14:24;;;;;;;1999.90;999.90;;;;;;;1.70;65.69;100105.00;4986777;28;96875;-71